sensor_id;sensor_type;location;lat;lon;timestamp;P1;durP1;ratioP1;P2;durP2;ratioP2
75133;SDS011;73631;44.326;40.200;2023-12-20T00:01:54;0.98;;;0.73;;
75133;SDS011;73631;44.326;40.200;2023-12-20T00:04:21;2.30;;;0.50;;
75133;SDS011;73631;44.326;40.200;2023-12-20T00:06:47;0.65;;;0.52;;
75133;SDS011;73631;44.326;40.200;2023-12-20T00:09:13;0.80;;;0.50;;
75133;SDS011;73631;44.326;40.200;2023-12-20T00:11:40;2.78;;;0.43;;
75133;SDS011;73631;44.326;40.200;2023-12-20T00:14:08;1.35;;;0.65;;
75133;SDS011;73631;44.326;40.200;2023-12-20T00:16:34;2.10;;;0.63;;
75133;SDS011;73631;44.326;40.200;2023-12-20T00:19:00;0.52;;;0.38;;
75133;SDS011;73631;44.326;40.200;2023-12-20T00:21:27;8.98;;;0.43;;
75133;SDS011;73631;44.326;40.200;2023-12-20T00:23:53;1.27;;;0.32;;
75133;SDS011;73631;44.326;40.200;2023-12-20T00:26:20;0.43;;;0.43;;
75133;SDS011;73631;44.326;40.200;2023-12-20T00:28:46;0.20;;;0.20;;
75133;SDS011;73631;44.326;40.200;2023-12-20T00:31:13;2.72;;;0.52;;
75133;SDS011;73631;44.326;40.200;2023-12-20T00:33:40;0.55;;;0.50;;
75133;SDS011;73631;44.326;40.200;2023-12-20T00:36:10;1.50;;;0.93;;
75133;SDS011;73631;44.326;40.200;2023-12-20T00:38:37;0.77;;;0.40;;
75133;SDS011;73631;44.326;40.200;2023-12-20T00:41:04;3.67;;;0.80;;
75133;SDS011;73631;44.326;40.200;2023-12-20T00:43:30;0.73;;;0.55;;
75133;SDS011;73631;44.326;40.200;2023-12-20T00:45:57;0.95;;;0.47;;
75133;SDS011;73631;44.326;40.200;2023-12-20T00:48:25;0.32;;;0.32;;
75133;SDS011;73631;44.326;40.200;2023-12-20T00:50:57;0.35;;;0.35;;
75133;SDS011;73631;44.326;40.200;2023-12-20T00:53:23;1.35;;;1.02;;
75133;SDS011;73631;44.326;40.200;2023-12-20T00:55:49;1.45;;;0.88;;
75133;SDS011;73631;44.326;40.200;2023-12-20T00:58:16;4.15;;;0.65;;
75133;SDS011;73631;44.326;40.200;2023-12-20T01:00:43;0.63;;;0.45;;
75133;SDS011;73631;44.326;40.200;2023-12-20T01:03:09;7.07;;;0.40;;
75133;SDS011;73631;44.326;40.200;2023-12-20T01:05:36;0.63;;;0.43;;
75133;SDS011;73631;44.326;40.200;2023-12-20T01:08:02;1.67;;;0.50;;
75133;SDS011;73631;44.326;40.200;2023-12-20T01:10:29;0.80;;;0.77;;
75133;SDS011;73631;44.326;40.200;2023-12-20T01:12:55;2.25;;;0.47;;
75133;SDS011;73631;44.326;40.200;2023-12-20T01:15:21;0.45;;;0.45;;
75133;SDS011;73631;44.326;40.200;2023-12-20T01:17:48;0.40;;;0.38;;
75133;SDS011;73631;44.326;40.200;2023-12-20T01:20:15;0.70;;;0.50;;
75133;SDS011;73631;44.326;40.200;2023-12-20T01:22:42;1.33;;;0.73;;
75133;SDS011;73631;44.326;40.200;2023-12-20T01:25:11;0.52;;;0.43;;
75133;SDS011;73631;44.326;40.200;2023-12-20T01:27:38;0.43;;;0.30;;
75133;SDS011;73631;44.326;40.200;2023-12-20T01:30:04;0.50;;;0.45;;
75133;SDS011;73631;44.326;40.200;2023-12-20T01:32:31;0.30;;;0.30;;
75133;SDS011;73631;44.326;40.200;2023-12-20T01:34:57;1.10;;;0.32;;
75133;SDS011;73631;44.326;40.200;2023-12-20T01:37:24;8.18;;;1.05;;
75133;SDS011;73631;44.326;40.200;2023-12-20T01:39:52;0.55;;;0.43;;
75133;SDS011;73631;44.326;40.200;2023-12-20T01:42:19;0.88;;;0.70;;
75133;SDS011;73631;44.326;40.200;2023-12-20T01:44:45;0.50;;;0.47;;
75133;SDS011;73631;44.326;40.200;2023-12-20T01:47:11;5.85;;;1.27;;
75133;SDS011;73631;44.326;40.200;2023-12-20T01:49:38;0.70;;;0.70;;
75133;SDS011;73631;44.326;40.200;2023-12-20T01:52:05;0.30;;;0.30;;
75133;SDS011;73631;44.326;40.200;2023-12-20T01:54:33;0.30;;;0.30;;
75133;SDS011;73631;44.326;40.200;2023-12-20T01:57:01;0.52;;;0.38;;
75133;SDS011;73631;44.326;40.200;2023-12-20T01:59:29;0.50;;;0.50;;
75133;SDS011;73631;44.326;40.200;2023-12-20T02:01:56;11.43;;;0.60;;
75133;SDS011;73631;44.326;40.200;2023-12-20T02:04:23;0.73;;;0.50;;
75133;SDS011;73631;44.326;40.200;2023-12-20T02:06:52;0.43;;;0.43;;
75133;SDS011;73631;44.326;40.200;2023-12-20T02:09:19;0.30;;;0.30;;
75133;SDS011;73631;44.326;40.200;2023-12-20T02:11:45;0.70;;;0.45;;
75133;SDS011;73631;44.326;40.200;2023-12-20T02:14:12;0.20;;;0.20;;
75133;SDS011;73631;44.326;40.200;2023-12-20T02:16:39;0.28;;;0.28;;
75133;SDS011;73631;44.326;40.200;2023-12-20T02:19:07;0.28;;;0.28;;
75133;SDS011;73631;44.326;40.200;2023-12-20T02:21:39;1.35;;;0.50;;
75133;SDS011;73631;44.326;40.200;2023-12-20T02:24:05;0.20;;;0.20;;
75133;SDS011;73631;44.326;40.200;2023-12-20T02:26:32;0.40;;;0.40;;
75133;SDS011;73631;44.326;40.200;2023-12-20T02:28:59;0.60;;;0.40;;
75133;SDS011;73631;44.326;40.200;2023-12-20T02:31:27;1.00;;;0.20;;
75133;SDS011;73631;44.326;40.200;2023-12-20T02:33:53;0.28;;;0.28;;
75133;SDS011;73631;44.326;40.200;2023-12-20T02:36:19;4.03;;;0.35;;
75133;SDS011;73631;44.326;40.200;2023-12-20T02:38:46;0.20;;;0.20;;
75133;SDS011;73631;44.326;40.200;2023-12-20T02:41:13;0.47;;;0.47;;
75133;SDS011;73631;44.326;40.200;2023-12-20T02:43:41;0.20;;;0.20;;
75133;SDS011;73631;44.326;40.200;2023-12-20T02:46:07;1.90;;;0.85;;
75133;SDS011;73631;44.326;40.200;2023-12-20T02:48:34;0.60;;;0.60;;
75133;SDS011;73631;44.326;40.200;2023-12-20T02:51:00;0.70;;;0.63;;
75133;SDS011;73631;44.326;40.200;2023-12-20T02:53:26;2.47;;;0.47;;
75133;SDS011;73631;44.326;40.200;2023-12-20T02:55:53;0.20;;;0.20;;
75133;SDS011;73631;44.326;40.200;2023-12-20T02:58:19;0.20;;;0.20;;
75133;SDS011;73631;44.326;40.200;2023-12-20T03:00:46;0.30;;;0.30;;
75133;SDS011;73631;44.326;40.200;2023-12-20T03:03:12;0.20;;;0.20;;
75133;SDS011;73631;44.326;40.200;2023-12-20T03:05:38;3.30;;;0.50;;
75133;SDS011;73631;44.326;40.200;2023-12-20T03:08:05;2.70;;;1.02;;
75133;SDS011;73631;44.326;40.200;2023-12-20T03:10:31;1.08;;;0.65;;
75133;SDS011;73631;44.326;40.200;2023-12-20T03:12:58;0.40;;;0.35;;
75133;SDS011;73631;44.326;40.200;2023-12-20T03:15:24;0.30;;;0.30;;
75133;SDS011;73631;44.326;40.200;2023-12-20T03:17:51;0.20;;;0.20;;
75133;SDS011;73631;44.326;40.200;2023-12-20T03:20:17;0.17;;;0.17;;
75133;SDS011;73631;44.326;40.200;2023-12-20T03:22:43;0.20;;;0.20;;
75133;SDS011;73631;44.326;40.200;2023-12-20T03:25:10;8.27;;;0.80;;
75133;SDS011;73631;44.326;40.200;2023-12-20T03:27:37;1.27;;;0.30;;
75133;SDS011;73631;44.326;40.200;2023-12-20T03:30:06;0.50;;;0.50;;
75133;SDS011;73631;44.326;40.200;2023-12-20T03:32:33;0.43;;;0.38;;
75133;SDS011;73631;44.326;40.200;2023-12-20T03:34:59;0.80;;;0.70;;
75133;SDS011;73631;44.326;40.200;2023-12-20T03:37:26;2.88;;;0.82;;
75133;SDS011;73631;44.326;40.200;2023-12-20T03:39:52;0.88;;;0.63;;
75133;SDS011;73631;44.326;40.200;2023-12-20T03:42:19;0.20;;;0.20;;
75133;SDS011;73631;44.326;40.200;2023-12-20T03:44:45;1.10;;;0.60;;
75133;SDS011;73631;44.326;40.200;2023-12-20T03:47:12;0.85;;;0.35;;
75133;SDS011;73631;44.326;40.200;2023-12-20T03:49:38;0.30;;;0.30;;
75133;SDS011;73631;44.326;40.200;2023-12-20T03:52:04;0.20;;;0.20;;
75133;SDS011;73631;44.326;40.200;2023-12-20T03:54:31;1.40;;;0.93;;
75133;SDS011;73631;44.326;40.200;2023-12-20T03:56:57;0.73;;;0.63;;
75133;SDS011;73631;44.326;40.200;2023-12-20T03:59:24;0.95;;;0.68;;
75133;SDS011;73631;44.326;40.200;2023-12-20T04:01:50;0.30;;;0.30;;
75133;SDS011;73631;44.326;40.200;2023-12-20T04:04:17;0.38;;;0.30;;
75133;SDS011;73631;44.326;40.200;2023-12-20T04:06:43;2.10;;;0.40;;
75133;SDS011;73631;44.326;40.200;2023-12-20T04:09:10;2.60;;;0.43;;
75133;SDS011;73631;44.326;40.200;2023-12-20T04:11:36;0.80;;;0.40;;
75133;SDS011;73631;44.326;40.200;2023-12-20T04:14:03;0.40;;;0.30;;
75133;SDS011;73631;44.326;40.200;2023-12-20T04:16:33;0.20;;;0.20;;
75133;SDS011;73631;44.326;40.200;2023-12-20T04:19:00;0.38;;;0.38;;
75133;SDS011;73631;44.326;40.200;2023-12-20T04:21:28;0.30;;;0.30;;
75133;SDS011;73631;44.326;40.200;2023-12-20T04:23:54;0.20;;;0.20;;
75133;SDS011;73631;44.326;40.200;2023-12-20T04:26:21;0.32;;;0.20;;
75133;SDS011;73631;44.326;40.200;2023-12-20T04:28:47;0.65;;;0.38;;
75133;SDS011;73631;44.326;40.200;2023-12-20T04:31:14;0.70;;;0.45;;
75133;SDS011;73631;44.326;40.200;2023-12-20T04:33:40;4.28;;;1.70;;
75133;SDS011;73631;44.326;40.200;2023-12-20T04:36:07;5.00;;;1.42;;
75133;SDS011;73631;44.326;40.200;2023-12-20T04:38:35;4.20;;;1.17;;
75133;SDS011;73631;44.326;40.200;2023-12-20T04:41:01;1.73;;;0.95;;
75133;SDS011;73631;44.326;40.200;2023-12-20T04:43:28;3.08;;;0.77;;
75133;SDS011;73631;44.326;40.200;2023-12-20T04:45:55;1.63;;;1.23;;
75133;SDS011;73631;44.326;40.200;2023-12-20T04:48:22;0.32;;;0.32;;
75133;SDS011;73631;44.326;40.200;2023-12-20T04:50:48;0.63;;;0.63;;
75133;SDS011;73631;44.326;40.200;2023-12-20T04:53:15;1.00;;;0.68;;
75133;SDS011;73631;44.326;40.200;2023-12-20T04:55:41;0.57;;;0.40;;
75133;SDS011;73631;44.326;40.200;2023-12-20T04:58:08;0.20;;;0.20;;
75133;SDS011;73631;44.326;40.200;2023-12-20T05:00:34;0.47;;;0.45;;
75133;SDS011;73631;44.326;40.200;2023-12-20T05:03:00;0.63;;;0.40;;
75133;SDS011;73631;44.326;40.200;2023-12-20T05:05:27;1.60;;;0.50;;
75133;SDS011;73631;44.326;40.200;2023-12-20T05:07:53;1.15;;;0.68;;
75133;SDS011;73631;44.326;40.200;2023-12-20T05:10:20;1.77;;;0.65;;
75133;SDS011;73631;44.326;40.200;2023-12-20T05:12:46;3.95;;;1.52;;
75133;SDS011;73631;44.326;40.200;2023-12-20T05:15:13;1.60;;;0.85;;
75133;SDS011;73631;44.326;40.200;2023-12-20T05:17:39;5.28;;;1.48;;
75133;SDS011;73631;44.326;40.200;2023-12-20T05:20:06;2.92;;;1.77;;
75133;SDS011;73631;44.326;40.200;2023-12-20T05:22:33;1.92;;;0.60;;
75133;SDS011;73631;44.326;40.200;2023-12-20T05:25:00;0.55;;;0.55;;
75133;SDS011;73631;44.326;40.200;2023-12-20T05:27:26;1.77;;;1.00;;
75133;SDS011;73631;44.326;40.200;2023-12-20T05:29:53;2.92;;;1.63;;
75133;SDS011;73631;44.326;40.200;2023-12-20T05:32:23;0.35;;;0.35;;
75133;SDS011;73631;44.326;40.200;2023-12-20T05:34:50;2.78;;;1.63;;
75133;SDS011;73631;44.326;40.200;2023-12-20T05:37:16;4.22;;;1.58;;
75133;SDS011;73631;44.326;40.200;2023-12-20T05:39:43;0.85;;;0.68;;
75133;SDS011;73631;44.326;40.200;2023-12-20T05:42:09;2.63;;;1.10;;
75133;SDS011;73631;44.326;40.200;2023-12-20T05:44:36;2.65;;;0.65;;
75133;SDS011;73631;44.326;40.200;2023-12-20T05:47:03;1.00;;;0.68;;
75133;SDS011;73631;44.326;40.200;2023-12-20T05:49:29;5.18;;;1.25;;
75133;SDS011;73631;44.326;40.200;2023-12-20T05:51:56;5.60;;;2.08;;
75133;SDS011;73631;44.326;40.200;2023-12-20T05:54:22;6.82;;;2.17;;
75133;SDS011;73631;44.326;40.200;2023-12-20T05:56:49;1.85;;;1.25;;
75133;SDS011;73631;44.326;40.200;2023-12-20T05:59:16;4.50;;;2.17;;
75133;SDS011;73631;44.326;40.200;2023-12-20T06:01:43;3.03;;;1.90;;
75133;SDS011;73631;44.326;40.200;2023-12-20T06:04:09;6.28;;;2.03;;
75133;SDS011;73631;44.326;40.200;2023-12-20T06:06:40;4.00;;;1.08;;
75133;SDS011;73631;44.326;40.200;2023-12-20T06:09:08;2.15;;;0.70;;
75133;SDS011;73631;44.326;40.200;2023-12-20T06:11:35;6.28;;;1.52;;
75133;SDS011;73631;44.326;40.200;2023-12-20T06:14:03;3.03;;;1.27;;
75133;SDS011;73631;44.326;40.200;2023-12-20T06:16:29;4.40;;;1.58;;
75133;SDS011;73631;44.326;40.200;2023-12-20T06:18:55;3.42;;;1.08;;
75133;SDS011;73631;44.326;40.200;2023-12-20T06:21:22;0.65;;;0.30;;
75133;SDS011;73631;44.326;40.200;2023-12-20T06:23:48;2.13;;;1.35;;
75133;SDS011;73631;44.326;40.200;2023-12-20T06:26:15;3.05;;;1.35;;
75133;SDS011;73631;44.326;40.200;2023-12-20T06:28:41;0.85;;;0.82;;
75133;SDS011;73631;44.326;40.200;2023-12-20T06:31:08;5.72;;;1.23;;
75133;SDS011;73631;44.326;40.200;2023-12-20T06:33:35;2.45;;;1.20;;
75133;SDS011;73631;44.326;40.200;2023-12-20T06:36:01;1.38;;;0.90;;
75133;SDS011;73631;44.326;40.200;2023-12-20T06:38:28;6.30;;;2.60;;
75133;SDS011;73631;44.326;40.200;2023-12-20T06:40:54;3.30;;;1.55;;
75133;SDS011;73631;44.326;40.200;2023-12-20T06:43:22;1.85;;;1.00;;
75133;SDS011;73631;44.326;40.200;2023-12-20T06:45:49;1.20;;;1.05;;
75133;SDS011;73631;44.326;40.200;2023-12-20T06:48:16;6.35;;;2.17;;
75133;SDS011;73631;44.326;40.200;2023-12-20T06:50:43;1.77;;;0.93;;
75133;SDS011;73631;44.326;40.200;2023-12-20T06:53:09;1.73;;;0.98;;
75133;SDS011;73631;44.326;40.200;2023-12-20T06:55:35;1.77;;;0.80;;
75133;SDS011;73631;44.326;40.200;2023-12-20T06:58:03;2.88;;;1.00;;
75133;SDS011;73631;44.326;40.200;2023-12-20T07:00:30;2.60;;;1.35;;
75133;SDS011;73631;44.326;40.200;2023-12-20T07:02:58;2.17;;;0.40;;
75133;SDS011;73631;44.326;40.200;2023-12-20T07:05:24;3.22;;;0.43;;
75133;SDS011;73631;44.326;40.200;2023-12-20T07:07:51;3.67;;;1.85;;
75133;SDS011;73631;44.326;40.200;2023-12-20T07:10:17;2.65;;;0.80;;
75133;SDS011;73631;44.326;40.200;2023-12-20T07:12:45;4.28;;;1.63;;
75133;SDS011;73631;44.326;40.200;2023-12-20T07:15:12;3.00;;;1.27;;
75133;SDS011;73631;44.326;40.200;2023-12-20T07:17:38;3.33;;;1.30;;
75133;SDS011;73631;44.326;40.200;2023-12-20T07:20:05;3.92;;;2.05;;
75133;SDS011;73631;44.326;40.200;2023-12-20T07:22:35;1.88;;;1.20;;
75133;SDS011;73631;44.326;40.200;2023-12-20T07:25:02;2.28;;;1.20;;
75133;SDS011;73631;44.326;40.200;2023-12-20T07:27:29;2.42;;;1.73;;
75133;SDS011;73631;44.326;40.200;2023-12-20T07:29:56;2.10;;;1.20;;
75133;SDS011;73631;44.326;40.200;2023-12-20T07:32:24;2.45;;;1.00;;
75133;SDS011;73631;44.326;40.200;2023-12-20T07:34:50;3.45;;;1.25;;
75133;SDS011;73631;44.326;40.200;2023-12-20T07:37:17;6.25;;;1.40;;
75133;SDS011;73631;44.326;40.200;2023-12-20T07:39:43;1.40;;;0.80;;
75133;SDS011;73631;44.326;40.200;2023-12-20T07:42:10;3.90;;;1.33;;
75133;SDS011;73631;44.326;40.200;2023-12-20T07:44:36;6.72;;;2.00;;
75133;SDS011;73631;44.326;40.200;2023-12-20T07:47:04;2.83;;;1.27;;
75133;SDS011;73631;44.326;40.200;2023-12-20T07:49:31;3.47;;;0.90;;
75133;SDS011;73631;44.326;40.200;2023-12-20T07:51:58;2.53;;;0.93;;
75133;SDS011;73631;44.326;40.200;2023-12-20T07:54:24;4.55;;;1.50;;
75133;SDS011;73631;44.326;40.200;2023-12-20T07:56:51;1.50;;;1.02;;
75133;SDS011;73631;44.326;40.200;2023-12-20T07:59:18;3.45;;;1.17;;
75133;SDS011;73631;44.326;40.200;2023-12-20T08:01:44;1.77;;;1.10;;
75133;SDS011;73631;44.326;40.200;2023-12-20T08:04:10;8.40;;;1.85;;
75133;SDS011;73631;44.326;40.200;2023-12-20T08:06:37;4.20;;;1.48;;
75133;SDS011;73631;44.326;40.200;2023-12-20T08:09:03;4.50;;;1.75;;
75133;SDS011;73631;44.326;40.200;2023-12-20T08:11:30;3.35;;;1.33;;
75133;SDS011;73631;44.326;40.200;2023-12-20T08:13:57;6.25;;;1.48;;
75133;SDS011;73631;44.326;40.200;2023-12-20T08:16:23;3.42;;;1.52;;
75133;SDS011;73631;44.326;40.200;2023-12-20T08:18:50;4.45;;;1.60;;
75133;SDS011;73631;44.326;40.200;2023-12-20T08:21:18;5.47;;;1.85;;
75133;SDS011;73631;44.326;40.200;2023-12-20T08:23:47;4.10;;;1.73;;
75133;SDS011;73631;44.326;40.200;2023-12-20T08:26:18;5.38;;;1.70;;
75133;SDS011;73631;44.326;40.200;2023-12-20T08:28:48;5.32;;;2.05;;
75133;SDS011;73631;44.326;40.200;2023-12-20T08:31:16;6.55;;;2.55;;
75133;SDS011;73631;44.326;40.200;2023-12-20T08:33:44;7.10;;;2.33;;
75133;SDS011;73631;44.326;40.200;2023-12-20T08:36:11;7.43;;;2.08;;
75133;SDS011;73631;44.326;40.200;2023-12-20T08:38:38;8.77;;;2.65;;
75133;SDS011;73631;44.326;40.200;2023-12-20T08:41:05;9.75;;;2.78;;
75133;SDS011;73631;44.326;40.200;2023-12-20T08:43:33;8.23;;;2.35;;
75133;SDS011;73631;44.326;40.200;2023-12-20T08:46:01;8.05;;;2.80;;
75133;SDS011;73631;44.326;40.200;2023-12-20T08:48:28;7.25;;;2.42;;
75133;SDS011;73631;44.326;40.200;2023-12-20T08:50:55;7.20;;;2.30;;
75133;SDS011;73631;44.326;40.200;2023-12-20T08:53:22;8.75;;;2.40;;
75133;SDS011;73631;44.326;40.200;2023-12-20T08:55:49;14.35;;;2.80;;
75133;SDS011;73631;44.326;40.200;2023-12-20T08:58:15;6.60;;;2.55;;
75133;SDS011;73631;44.326;40.200;2023-12-20T09:00:42;12.90;;;2.58;;
75133;SDS011;73631;44.326;40.200;2023-12-20T09:03:09;8.70;;;2.50;;
75133;SDS011;73631;44.326;40.200;2023-12-20T09:05:35;4.93;;;2.13;;
75133;SDS011;73631;44.326;40.200;2023-12-20T09:08:02;6.43;;;2.25;;
75133;SDS011;73631;44.326;40.200;2023-12-20T09:10:29;7.53;;;2.03;;
75133;SDS011;73631;44.326;40.200;2023-12-20T09:12:55;9.48;;;2.53;;
75133;SDS011;73631;44.326;40.200;2023-12-20T09:15:23;12.00;;;2.70;;
75133;SDS011;73631;44.326;40.200;2023-12-20T09:17:51;6.65;;;2.25;;
75133;SDS011;73631;44.326;40.200;2023-12-20T09:20:18;12.48;;;2.60;;
75133;SDS011;73631;44.326;40.200;2023-12-20T09:22:44;5.05;;;2.10;;
75133;SDS011;73631;44.326;40.200;2023-12-20T09:25:12;7.10;;;1.88;;
75133;SDS011;73631;44.326;40.200;2023-12-20T09:27:40;5.32;;;2.10;;
75133;SDS011;73631;44.326;40.200;2023-12-20T09:30:07;5.13;;;2.00;;
75133;SDS011;73631;44.326;40.200;2023-12-20T09:32:34;5.32;;;1.83;;
75133;SDS011;73631;44.326;40.200;2023-12-20T09:35:01;4.38;;;1.58;;
75133;SDS011;73631;44.326;40.200;2023-12-20T09:37:28;6.85;;;2.13;;
75133;SDS011;73631;44.326;40.200;2023-12-20T09:39:55;5.13;;;1.63;;
75133;SDS011;73631;44.326;40.200;2023-12-20T09:42:24;4.60;;;1.77;;
75133;SDS011;73631;44.326;40.200;2023-12-20T09:44:59;4.38;;;1.63;;
75133;SDS011;73631;44.326;40.200;2023-12-20T09:47:30;3.03;;;1.23;;
75133;SDS011;73631;44.326;40.200;2023-12-20T09:49:58;2.58;;;1.23;;
75133;SDS011;73631;44.326;40.200;2023-12-20T09:52:25;4.05;;;1.40;;
75133;SDS011;73631;44.326;40.200;2023-12-20T09:54:52;2.80;;;1.15;;
75133;SDS011;73631;44.326;40.200;2023-12-20T09:57:20;4.78;;;0.95;;
75133;SDS011;73631;44.326;40.200;2023-12-20T09:59:47;6.90;;;1.10;;
75133;SDS011;73631;44.326;40.200;2023-12-20T10:02:13;1.02;;;0.60;;
75133;SDS011;73631;44.326;40.200;2023-12-20T10:04:46;1.77;;;0.93;;
75133;SDS011;73631;44.326;40.200;2023-12-20T10:07:13;2.20;;;0.50;;
75133;SDS011;73631;44.326;40.200;2023-12-20T10:09:42;2.00;;;0.52;;
75133;SDS011;73631;44.326;40.200;2023-12-20T10:12:09;0.57;;;0.40;;
75133;SDS011;73631;44.326;40.200;2023-12-20T10:14:37;0.75;;;0.50;;
75133;SDS011;73631;44.326;40.200;2023-12-20T10:17:05;0.90;;;0.32;;
75133;SDS011;73631;44.326;40.200;2023-12-20T10:19:32;1.65;;;0.50;;
75133;SDS011;73631;44.326;40.200;2023-12-20T10:21:59;0.40;;;0.32;;
75133;SDS011;73631;44.326;40.200;2023-12-20T10:24:28;2.00;;;0.60;;
75133;SDS011;73631;44.326;40.200;2023-12-20T10:27:04;2.83;;;0.40;;
75133;SDS011;73631;44.326;40.200;2023-12-20T10:29:36;4.90;;;0.40;;
75133;SDS011;73631;44.326;40.200;2023-12-20T10:34:53;2.20;;;0.60;;
75133;SDS011;73631;44.326;40.200;2023-12-20T10:37:23;2.40;;;0.82;;
75133;SDS011;73631;44.326;40.200;2023-12-20T10:39:50;0.65;;;0.57;;
75133;SDS011;73631;44.326;40.200;2023-12-20T10:42:22;0.98;;;0.65;;
75133;SDS011;73631;44.326;40.200;2023-12-20T10:44:51;1.88;;;0.60;;
75133;SDS011;73631;44.326;40.200;2023-12-20T10:47:20;4.63;;;2.53;;
75133;SDS011;73631;44.326;40.200;2023-12-20T10:49:47;3.33;;;1.00;;
75133;SDS011;73631;44.326;40.200;2023-12-20T10:52:14;1.83;;;0.75;;
75133;SDS011;73631;44.326;40.200;2023-12-20T10:54:42;0.50;;;0.32;;
75133;SDS011;73631;44.326;40.200;2023-12-20T10:57:10;7.38;;;1.20;;
75133;SDS011;73631;44.326;40.200;2023-12-20T10:59:37;4.57;;;0.77;;
75133;SDS011;73631;44.326;40.200;2023-12-20T11:02:05;1.38;;;0.63;;
75133;SDS011;73631;44.326;40.200;2023-12-20T11:07:55;1.27;;;0.70;;
75133;SDS011;73631;44.326;40.200;2023-12-20T11:10:43;0.68;;;0.43;;
75133;SDS011;73631;44.326;40.200;2023-12-20T11:13:25;0.77;;;0.30;;
75133;SDS011;73631;44.326;40.200;2023-12-20T11:15:58;1.27;;;0.50;;
75133;SDS011;73631;44.326;40.200;2023-12-20T11:18:29;0.40;;;0.40;;
75133;SDS011;73631;44.326;40.200;2023-12-20T11:21:02;1.63;;;0.65;;
75133;SDS011;73631;44.326;40.200;2023-12-20T11:23:31;1.15;;;0.80;;
75133;SDS011;73631;44.326;40.200;2023-12-20T11:26:02;2.10;;;0.80;;
75133;SDS011;73631;44.326;40.200;2023-12-20T11:28:28;0.40;;;0.40;;
75133;SDS011;73631;44.326;40.200;2023-12-20T11:30:56;0.65;;;0.30;;
75133;SDS011;73631;44.326;40.200;2023-12-20T11:33:30;1.00;;;0.57;;
75133;SDS011;73631;44.326;40.200;2023-12-20T11:36:03;1.45;;;0.60;;
75133;SDS011;73631;44.326;40.200;2023-12-20T11:38:58;4.82;;;1.38;;
75133;SDS011;73631;44.326;40.200;2023-12-20T11:41:25;0.75;;;0.45;;
75133;SDS011;73631;44.326;40.200;2023-12-20T11:43:53;0.75;;;0.40;;
75133;SDS011;73631;44.326;40.200;2023-12-20T11:46:21;0.30;;;0.30;;
75133;SDS011;73631;44.326;40.200;2023-12-20T11:48:50;1.48;;;0.60;;
75133;SDS011;73631;44.326;40.200;2023-12-20T11:51:17;4.22;;;0.50;;
75133;SDS011;73631;44.326;40.200;2023-12-20T11:53:44;1.38;;;0.93;;
75133;SDS011;73631;44.326;40.200;2023-12-20T11:56:10;4.40;;;1.20;;
75133;SDS011;73631;44.326;40.200;2023-12-20T11:58:38;4.15;;;1.23;;
75133;SDS011;73631;44.326;40.200;2023-12-20T12:01:07;5.72;;;0.82;;
75133;SDS011;73631;44.326;40.200;2023-12-20T12:03:35;7.93;;;0.60;;
75133;SDS011;73631;44.326;40.200;2023-12-20T12:06:02;0.40;;;0.40;;
75133;SDS011;73631;44.326;40.200;2023-12-20T12:08:30;2.63;;;0.50;;
75133;SDS011;73631;44.326;40.200;2023-12-20T12:10:56;1.65;;;0.68;;
75133;SDS011;73631;44.326;40.200;2023-12-20T12:13:23;2.92;;;0.65;;
75133;SDS011;73631;44.326;40.200;2023-12-20T12:15:53;1.15;;;0.80;;
75133;SDS011;73631;44.326;40.200;2023-12-20T12:18:20;3.00;;;0.65;;
75133;SDS011;73631;44.326;40.200;2023-12-20T12:20:46;5.32;;;0.50;;
75133;SDS011;73631;44.326;40.200;2023-12-20T12:23:13;1.60;;;0.90;;
75133;SDS011;73631;44.326;40.200;2023-12-20T12:25:40;10.25;;;0.93;;
75133;SDS011;73631;44.326;40.200;2023-12-20T12:28:08;2.05;;;0.70;;
75133;SDS011;73631;44.326;40.200;2023-12-20T12:30:34;2.42;;;1.23;;
75133;SDS011;73631;44.326;40.200;2023-12-20T12:33:02;6.30;;;1.10;;
75133;SDS011;73631;44.326;40.200;2023-12-20T12:35:29;1.27;;;0.70;;
75133;SDS011;73631;44.326;40.200;2023-12-20T12:37:58;3.72;;;0.50;;
75133;SDS011;73631;44.326;40.200;2023-12-20T12:40:26;2.40;;;0.60;;
75133;SDS011;73631;44.326;40.200;2023-12-20T12:42:52;6.53;;;0.80;;
75133;SDS011;73631;44.326;40.200;2023-12-20T12:45:19;0.95;;;0.47;;
75133;SDS011;73631;44.326;40.200;2023-12-20T12:47:46;2.20;;;0.80;;
75133;SDS011;73631;44.326;40.200;2023-12-20T12:50:13;2.22;;;0.70;;
75133;SDS011;73631;44.326;40.200;2023-12-20T12:52:41;5.75;;;1.65;;
75133;SDS011;73631;44.326;40.200;2023-12-20T12:55:08;9.60;;;1.60;;
75133;SDS011;73631;44.326;40.200;2023-12-20T12:57:34;6.70;;;1.80;;
75133;SDS011;73631;44.326;40.200;2023-12-20T13:00:01;15.82;;;4.40;;
75133;SDS011;73631;44.326;40.200;2023-12-20T13:02:29;14.80;;;3.00;;
75133;SDS011;73631;44.326;40.200;2023-12-20T13:04:56;8.02;;;1.92;;
75133;SDS011;73631;44.326;40.200;2023-12-20T13:07:23;4.05;;;1.13;;
75133;SDS011;73631;44.326;40.200;2023-12-20T13:09:49;10.63;;;3.30;;
75133;SDS011;73631;44.326;40.200;2023-12-20T13:12:16;18.33;;;1.65;;
75133;SDS011;73631;44.326;40.200;2023-12-20T13:14:42;3.75;;;1.02;;
75133;SDS011;73631;44.326;40.200;2023-12-20T13:17:09;1.08;;;0.73;;
75133;SDS011;73631;44.326;40.200;2023-12-20T13:19:36;11.70;;;0.60;;
75133;SDS011;73631;44.326;40.200;2023-12-20T13:22:02;1.65;;;0.75;;
75133;SDS011;73631;44.326;40.200;2023-12-20T13:24:29;0.63;;;0.50;;
75133;SDS011;73631;44.326;40.200;2023-12-20T13:26:56;8.50;;;0.80;;
75133;SDS011;73631;44.326;40.200;2023-12-20T13:29:23;2.15;;;0.60;;
75133;SDS011;73631;44.326;40.200;2023-12-20T13:31:53;4.88;;;1.45;;
75133;SDS011;73631;44.326;40.200;2023-12-20T13:34:19;4.38;;;0.88;;
75133;SDS011;73631;44.326;40.200;2023-12-20T13:36:47;0.77;;;0.50;;
75133;SDS011;73631;44.326;40.200;2023-12-20T13:39:16;11.88;;;1.15;;
75133;SDS011;73631;44.326;40.200;2023-12-20T13:41:43;1.08;;;0.50;;
75133;SDS011;73631;44.326;40.200;2023-12-20T13:44:10;0.90;;;0.65;;
75133;SDS011;73631;44.326;40.200;2023-12-20T13:46:41;0.60;;;0.60;;
75133;SDS011;73631;44.326;40.200;2023-12-20T13:49:08;0.30;;;0.30;;
75133;SDS011;73631;44.326;40.200;2023-12-20T13:51:34;2.58;;;0.40;;
75133;SDS011;73631;44.326;40.200;2023-12-20T13:54:01;1.08;;;0.57;;
75133;SDS011;73631;44.326;40.200;2023-12-20T13:56:28;1.58;;;0.50;;
75133;SDS011;73631;44.326;40.200;2023-12-20T13:58:56;1.05;;;0.60;;
75133;SDS011;73631;44.326;40.200;2023-12-20T14:01:23;0.45;;;0.40;;
75133;SDS011;73631;44.326;40.200;2023-12-20T14:03:51;0.90;;;0.45;;
75133;SDS011;73631;44.326;40.200;2023-12-20T14:06:20;2.65;;;0.63;;
75133;SDS011;73631;44.326;40.200;2023-12-20T14:08:47;0.50;;;0.50;;
75133;SDS011;73631;44.326;40.200;2023-12-20T14:11:14;0.47;;;0.30;;
75133;SDS011;73631;44.326;40.200;2023-12-20T14:13:42;0.90;;;0.43;;
75133;SDS011;73631;44.326;40.200;2023-12-20T14:16:10;0.57;;;0.40;;
75133;SDS011;73631;44.326;40.200;2023-12-20T14:18:39;0.43;;;0.38;;
75133;SDS011;73631;44.326;40.200;2023-12-20T14:21:09;0.88;;;0.40;;
75133;SDS011;73631;44.326;40.200;2023-12-20T14:23:36;0.20;;;0.20;;
75133;SDS011;73631;44.326;40.200;2023-12-20T14:26:04;0.93;;;0.38;;
75133;SDS011;73631;44.326;40.200;2023-12-20T14:28:31;0.40;;;0.40;;
75133;SDS011;73631;44.326;40.200;2023-12-20T14:30:59;2.85;;;0.73;;
75133;SDS011;73631;44.326;40.200;2023-12-20T14:33:25;1.80;;;0.70;;
75133;SDS011;73631;44.326;40.200;2023-12-20T14:35:53;0.60;;;0.60;;
75133;SDS011;73631;44.326;40.200;2023-12-20T14:38:20;6.28;;;0.90;;
75133;SDS011;73631;44.326;40.200;2023-12-20T14:40:49;0.75;;;0.30;;